Pagrindinis puslapis
METAR-TAF:

METAR-TAF

Oro uostai :

Amanas, Jordanija

platuma: 31-59N, ilguma: 035-59E, Aukštis: 767 m

Dabartinis oras

Ataskaita buvo paskelbta 50 minutes, ne 04:00 UTC
Ramus vėjas
Temperatūra 19°C
Drėgmė 49%
Slėgis 1017 hPa
Matomumas: 4000 m
migla

METAR: OJAM 180400Z 00000KT 4000 HZ NSC 19/08 Q1017 NOSIG

Laikas: 07:50 (04:50 UTC)

Prognozė

Ataskaita buvo paskelbta 6 valandos ir 11 minutes, ne 22:39 UTC
Prognozė galioja nuo 18 metu 00 UTC su 19 metu 06 UTC
Vėjas 1 kt nuo kintamojo kryptimis
Matomumas: 6000 m
Tikimybė 40%
nuo 18 metu 02 UTC su 18 metu 06 UTC
Matomumas: 3000 m
dūmai
Tapsmas
nuo 18 metu 06 UTC su 18 metu 08 UTC
Vėjas 10 kt iš Rytų
Matomumas: 5000 m
migla

TAF: OJAM 172239Z 1800/1906 VRB01KT 6000 NSC PROB40 1802/1806 3000 FU BECMG 1806/1808 08010KT 5000 HZ

Orai ataskaitas ir orų prognozės (METAR, TAF).

turimą stotys yra geltonos ir raudonos taškus žemėlapyje.

Perkelti pele per norėdami pamatyti stoties vardą.

Tada spustelėkite, norėdami matyti oro stebėjimo ir prognozės.

Norėdami pakeisti žemėlapį: spustelėkite ant žalios mygtukų su juodo kryžiaus žemyn,; žalią mygtuką su brūkšneliu, jei norite nutolinti; arba žalių rodyklių gretimoms žemėlapius.


METAR-TAF: